Latest Weather Observations for Wagga Wagga

IDN60801

Issued at 11:33 am EST Tuesday 27 September 2016 (issued every 30 minutes, with the page automatically refreshed every 10 minutes)

About weather observations | Map of weather stations | Latest weather observations for NSW | Other Formats
Station Details ID: 072150 Name: WAGGA WAGGA AMO Lat: -35.16 Lon: 147.46 Height: 212.0 m
Data from the previous 72 hours. | See also: Recent months at Wagga Wagga
Date/Time
EST
Temp
°C
App
Temp
°C
Dew
Point
°C
Rel
Hum
%
Delta-T
°C
Wind Press
QNH
hPa
Press
MSL
hPa
Rain since
9am
mm
Dir  Spd
km/h
Gust
km/h
Spd
kts
Gust
kts
27/11:00am 12.7 6.5 4.5 57 3.8 W 26 33 14 18 1013.2 1013.3 0.0
27/10:30am 11.1 4.4 3.7 60 3.3 WSW 28 35 15 19 1013.1 1013.2 0.0
27/10:00am 11.9 5.8 4.8 62 3.3 WSW 26 33 14 18 1012.9 1013.0 0.0
27/09:30am 11.1 5.4 4.8 65 2.9 WSW 24 33 13 18 1012.8 1012.9 0.0
27/09:00am 10.7 4.7 5.5 70 2.4 WSW 26 33 14 18 1012.9 1013.0 3.4
27/08:30am 9.6 4.1 5.7 76 1.8 WSW 24 32 13 17 1012.7 1012.8 3.4
27/08:12am 9.2 5.1 6.2 81 1.4 WSW 17 26 9 14 1012.3 1012.4 3.4
27/08:00am 9.2 4.5 6.0 80 1.5 WSW 20 30 11 16 1012.2 1012.3 3.4
27/07:30am 9.0 4.6 6.7 85 1.1 W 19 26 10 14 1011.8 1011.9 3.4
27/07:00am 8.2 4.7 7.1 93 0.5 W 15 19 8 10 1011.6 1011.7 3.4
27/06:30am 8.1 5.0 7.3 95 0.4 WNW 13 17 7 9 1011.2 1011.3 3.4
27/06:00am 7.6 4.4 7.0 96 0.3 WNW 13 15 7 8 1010.9 1010.9 3.4
27/05:30am 8.0 5.6 7.2 95 0.4 WNW 9 13 5 7 1010.5 1010.5 3.4
27/05:00am 8.8 6.2 7.8 93 0.5 WNW 11 15 6 8 1010.1 1010.1 3.4
27/04:30am 8.8 6.2 7.8 93 0.5 NNW 11 15 6 8 1009.9 1009.9 3.4
27/04:00am 8.6 7.0 7.8 95 0.4 NNW 6 9 3 5 1010.0 1010.0 3.4
27/03:55am 8.5 6.8 7.7 95 0.4 WNW 6 7 3 4 1009.8 1009.8 3.2
27/03:39am 8.6 6.4 7.8 95 0.4 WSW 9 15 5 8 1010.0 1010.0 3.2
27/03:30am 8.9 5.8 7.4 90 0.7 NNW 13 17 7 9 1010.2 1010.2 2.6
27/03:17am 8.6 6.7 7.6 93 0.5 W 7 13 4 7 1010.2 1010.2 2.6
27/03:00am 8.6 6.1 8.0 96 0.3 N 11 15 6 8 1009.9 1009.9 2.6
27/02:50am 8.6 6.3 7.6 93 0.5 N 9 11 5 6 1010.6 1010.6 1.6
27/02:30am 8.3 5.9 7.0 91 0.6 ENE 9 13 5 7 1010.4 1010.4 0.8
27/02:00am 8.4 5.5 6.7 89 0.8 ENE 11 13 6 7 1010.9 1010.9 0.4
27/01:30am 8.2 7.1 7.1 93 0.5 NNE 2 9 1 5 1011.8 1011.9 0.4
27/01:00am 8.1 5.3 7.0 93 0.5 SW 11 13 6 7 1011.8 1011.9 0.4
27/12:30am 8.5 5.6 6.6 88 0.9 ESE 11 13 6 7 1011.7 1011.8 0.2
27/12:00am 8.3 5.8 6.6 89 0.8 E 9 11 5 6 1012.1 1012.2 0.2
 
Date/Time
EST
Temp
°C
App
Temp
°C
Dew
Point
°C
Rel
Hum
%
Delta-T
°C
Wind Press
QNH
hPa
Press
MSL
hPa
Rain since
9am
mm
Dir  Spd
km/h
Gust
km/h
Spd
kts
Gust
kts
26/11:30pm 7.8 4.9 6.3 90 0.7 SSW 11 13 6 7 1012.9 1013.0 0.0
26/11:00pm 6.8 4.5 5.9 94 0.4 SW 7 9 4 5 1012.9 1013.0 0.0
26/10:30pm 5.9 4.8 5.0 94 0.4 CALM 0 0 0 0 1012.6 1012.7 0.0
26/10:00pm 6.3 4.0 4.7 89 0.7 E 6 6 3 3 1012.7 1012.8 0.0
26/09:30pm 7.5 4.8 5.7 88 0.8 E 9 9 5 5 1012.7 1012.8 0.0
26/09:00pm 9.0 6.3 5.7 80 1.5 E 9 9 5 5 1013.0 1013.1 0.0
26/08:30pm 9.3 6.6 5.6 78 1.7 ENE 9 9 5 5 1012.9 1013.0 0.0
26/08:00pm 10.2 7.9 5.7 73 2.1 ENE 7 9 4 5 1012.8 1012.9 0.0
26/07:30pm 10.6 7.9 5.7 72 2.3 ENE 9 9 5 5 1012.6 1012.7 0.0
26/07:00pm 11.5 10.0 4.8 63 3.1 NNE 2 7 1 4 1012.6 1012.7 0.0
26/06:30pm 12.6 10.2 5.1 60 3.5 N 7 9 4 5 1012.4 1012.5 0.0
26/06:00pm 13.2 10.3 4.9 57 3.9 NW 9 11 5 6 1012.4 1012.5 0.0
26/05:30pm 13.7 11.6 6.0 59 3.7 WNW 6 7 3 4 1012.4 1012.5 0.0
26/05:00pm 14.1 11.4 5.5 56 4.1 W 9 13 5 7 1012.4 1012.5 0.0
26/04:30pm 14.0 10.2 4.1 51 4.6 WSW 13 17 7 9 1012.3 1012.4 0.0
26/04:00pm 14.4 10.7 4.6 51 4.6 WSW 13 17 7 9 1012.4 1012.5 0.0
26/03:30pm 14.3 10.0 3.4 48 5.0 W 15 17 8 9 1012.2 1012.3 0.0
26/03:00pm 14.1 9.5 3.9 50 4.7 W 17 22 9 12 1012.3 1012.4 0.0
26/02:30pm 14.3 10.2 4.2 50 4.7 W 15 22 8 12 1012.3 1012.4 0.0
26/02:03pm 14.0 9.1 4.3 52 4.5 W 19 26 10 14 1012.5 1012.6 0.0
26/02:00pm 14.0 9.0 3.8 50 4.7 W 19 26 10 14 1012.5 1012.6 0.0
26/01:30pm 13.9 9.9 5.0 55 4.2 W 15 22 8 12 1012.8 1012.9 0.0
26/01:00pm 14.6 9.9 5.1 53 4.5 WSW 19 26 10 14 1013.0 1013.1 0.0
26/12:30pm 14.7 9.9 2.8 44 5.4 W 17 26 9 14 1013.2 1013.3 0.0
26/12:00pm 14.4 8.5 3.8 49 4.9 WSW 24 35 13 19 1013.5 1013.6 0.0
26/11:30am 14.5 9.8 3.4 47 5.1 W 17 30 9 16 1013.6 1013.7 0.0
26/11:00am 14.1 10.4 4.2 51 4.6 WSW 13 22 7 12 1013.9 1014.0 0.0
26/10:30am 13.8 10.7 5.4 57 4.0 W 11 15 6 8 1014.4 1014.4 0.0
26/10:00am 12.5 10.6 6.5 67 2.9 NNW 6 11 3 6 1014.7 1014.7 0.0
26/09:30am 12.0 10.0 6.4 68 2.7 N 6 9 3 5 1014.8 1014.8 0.0
26/09:00am 10.2 9.1 6.8 79 1.6 WNW 2 7 1 4 1015.1 1015.2 0.6
26/08:30am 9.1 7.1 6.3 83 1.3 NW 6 9 3 5 1015.1 1015.2 0.6
26/08:00am 8.1 5.8 5.9 86 1.0 N 7 9 4 5 1015.0 1015.1 0.6
26/07:30am 6.8 4.4 5.2 89 0.7 N 7 9 4 5 1015.1 1015.2 0.6
26/07:00am 6.0 3.5 4.9 93 0.5 N 7 9 4 5 1015.1 1015.2 0.6
26/06:30am 4.8 2.2 4.1 95 0.3 NNW 7 9 4 5 1014.8 1014.8 0.6
26/06:00am 4.2 2.8 3.5 95 0.3 CALM 0 0 0 0 1014.5 1014.5 0.6
26/05:30am 3.8 2.4 3.6 99 0.1 CALM 0 0 0 0 1014.4 1014.4 0.6
26/05:00am 3.8 1.0 3.1 95 0.3 NW 7 9 4 5 1014.3 1014.3 0.6
26/04:30am 4.8 1.8 4.1 95 0.3 N 9 11 5 6 1013.7 1013.8 0.6
26/04:00am 4.4 1.9 3.9 97 0.2 NE 6 7 3 4 1013.5 1013.6 0.6
26/03:30am 4.4 1.7 3.9 97 0.2 ENE 7 9 4 5 1013.5 1013.6 0.6
26/03:00am 4.9 2.9 4.2 95 0.3 NE 4 6 2 3 1013.7 1013.8 0.6
26/02:30am 5.4 4.2 4.7 95 0.3 CALM 0 0 0 0 1013.9 1014.0 0.6
26/02:00am 5.6 4.4 4.7 94 0.4 CALM 0 0 0 0 1013.9 1014.0 0.6
26/01:30am 5.9 3.5 5.2 95 0.3 NNW 7 9 4 5 1013.9 1014.0 0.6
26/01:00am 5.7 4.5 4.6 93 0.5 CALM 0 0 0 0 1014.2 1014.2 0.6
26/12:30am 5.3 4.0 4.1 92 0.5 CALM 0 0 0 0 1014.0 1014.1 0.6
26/12:00am 6.0 4.8 4.6 91 0.6 CALM 0 0 0 0 1013.8 1013.9 0.6
 
Date/Time
EST
Temp
°C
App
Temp
°C
Dew
Point
°C
Rel
Hum
%
Delta-T
°C
Wind Press
QNH
hPa
Press
MSL
hPa
Rain since
9am
mm
Dir  Spd
km/h
Gust
km/h
Spd
kts
Gust
kts
25/11:30pm 6.3 5.2 4.9 91 0.6 CALM 0 0 0 0 1013.8 1013.9 0.6
25/11:00pm 6.0 4.9 5.1 94 0.4 CALM 0 4 0 2 1013.9 1014.0 0.6
25/10:30pm 6.8 5.8 5.7 93 0.5 CALM 0 0 0 0 1013.8 1013.9 0.6
25/10:00pm 8.0 5.5 4.9 81 1.4 W 7 7 4 4 1013.7 1013.8 0.6
25/09:30pm 8.7 5.8 4.7 76 1.8 W 9 11 5 6 1013.4 1013.5 0.6
25/09:00pm 8.6 7.4 4.8 77 1.7 CALM 0 0 0 0 1013.2 1013.3 0.6
25/08:30pm 8.5 7.6 5.9 84 1.2 CALM 0 0 0 0 1012.9 1013.0 0.6
25/08:00pm 8.7 7.3 5.6 81 1.4 SW 2 7 1 4 1012.5 1012.6 0.6
25/07:30pm 9.4 6.1 4.8 73 2.1 W 11 13 6 7 1012.4 1012.5 0.6
25/07:00pm 9.9 5.8 4.3 68 2.5 W 15 17 8 9 1011.7 1011.8 0.6
25/06:30pm 10.5 6.8 4.6 67 2.7 WSW 13 15 7 8 1011.1 1011.2 0.6
25/06:00pm 12.2 7.4 4.6 59 3.5 W 19 26 10 14 1010.8 1010.8 0.6
25/05:30pm 14.2 9.7 6.2 58 3.9 WSW 19 24 10 13 1010.6 1010.6 0.6
25/05:00pm 14.8 9.9 5.2 52 4.6 WSW 20 28 11 15 1010.3 1010.3 0.6
25/04:30pm 15.4 9.8 5.4 51 4.8 WSW 24 33 13 18 1010.2 1010.2 0.4
25/04:00pm 15.8 9.9 6.0 52 4.8 WSW 26 33 14 18 1009.9 1009.9 0.4
25/03:30pm 15.9 9.1 6.9 55 4.5 W 32 39 17 21 1009.8 1009.8 0.4
25/03:00pm 16.1 10.4 8.3 60 4.0 WSW 28 37 15 20 1009.7 1009.7 0.4
25/02:30pm 15.9 10.5 9.6 66 3.3 WSW 28 35 15 19 1009.6 1009.6 0.4
25/02:00pm 16.6 11.9 10.7 68 3.2 SW 26 33 14 18 1009.3 1009.3 0.4
25/01:30pm 16.5 13.2 11.6 73 2.7 WSW 20 32 11 17 1009.1 1009.2 0.4
25/01:00pm 15.6 12.8 11.4 76 2.3 WSW 17 24 9 13 1009.3 1009.3 0.4
25/12:30pm 13.7 9.6 11.5 86 1.2 SW 24 30 13 16 1009.6 1009.6 0.4
25/12:00pm 14.8 11.6 10.1 73 2.5 W 17 24 9 13 1009.4 1009.4 0.0
25/11:30am 14.0 10.9 10.4 79 1.9 W 17 22 9 12 1009.6 1009.6 0.0
25/11:09am 13.2 10.3 11.1 87 1.1 W 17 22 9 12 1009.6 1009.6 0.0
25/11:00am 12.8 9.5 10.9 88 1.0 W 19 32 10 17 1009.6 1009.6 0.0
25/10:30am 13.8 11.5 10.4 80 1.8 SW 13 17 7 9 1009.4 1009.4 0.0
25/10:00am 12.9 10.6 10.4 85 1.3 W 13 19 7 10 1009.4 1009.4 0.0
25/09:37am 11.9 9.6 10.6 92 0.7 W 13 17 7 9 1009.5 1009.5 0.0
25/09:30am 12.2 10.7 10.7 90 0.8 WNW 9 13 5 7 1009.4 1009.4 0.0
25/09:00am 11.9 11.0 10.6 92 0.7 WSW 6 11 3 6 1009.0 1009.1 0.2
25/08:30am 12.1 10.6 10.4 89 0.9 WSW 9 13 5 7 1008.8 1008.9 0.2
25/08:00am 12.4 10.9 9.3 81 1.6 SSW 7 11 4 6 1008.6 1008.7 0.2
25/07:30am 12.3 10.9 9.6 83 1.4 ESE 7 9 4 5 1008.2 1008.3 0.2
25/07:00am 11.7 11.3 9.6 87 1.1 E 2 9 1 5 1007.9 1008.0 0.2
25/06:30am 11.4 11.3 9.4 87 1.0 CALM 0 0 0 0 1007.9 1008.0 0.2
25/06:00am 11.4 11.3 9.4 87 1.0 CALM 0 0 0 0 1007.7 1007.8 0.2
25/05:30am 11.5 11.4 9.5 87 1.0 CALM 0 0 0 0 1007.6 1007.7 0.2
25/05:00am 11.5 9.7 9.3 86 1.1 SW 9 13 5 7 1007.3 1007.4 0.0
25/04:30am 11.5 9.7 9.3 86 1.1 S 9 11 5 6 1006.9 1006.9 0.0
25/04:00am 11.8 9.8 10.1 89 0.9 S 11 15 6 8 1007.0 1007.1 0.0
25/03:30am 11.8 9.5 10.5 92 0.7 S 13 17 7 9 1006.9 1006.9 0.0
25/03:00am 12.2 11.4 11.1 93 0.6 ENE 6 7 3 4 1006.9 1006.9 0.0
25/02:30am 12.2 11.5 11.3 94 0.5 SSE 6 7 3 4 1007.0 1007.1 0.0
25/02:00am 12.4 11.0 10.9 90 0.8 N 9 11 5 6 1007.6 1007.7 0.0
25/01:30am 12.6 12.0 10.3 86 1.2 NNE 4 9 2 5 1007.6 1007.7 0.0
25/01:00am 12.7 12.6 10.8 88 1.0 NNE 2 7 1 4 1007.8 1007.9 0.0
25/12:30am 12.7 13.0 11.0 89 0.9 CALM 0 0 0 0 1007.9 1008.0 0.0
25/12:00am 12.7 13.0 11.0 89 0.9 CALM 0 0 0 0 1007.9 1008.0 0.0
 
Date/Time
EST
Temp
°C
App
Temp
°C
Dew
Point
°C
Rel
Hum
%
Delta-T
°C
Wind Press
QNH
hPa
Press
MSL
hPa
Rain since
9am
mm
Dir  Spd
km/h
Gust
km/h
Spd
kts
Gust
kts
24/11:30pm 12.6 13.0 11.1 91 0.8 CALM 0 0 0 0 1007.9 1008.0 0.0
24/11:00pm 13.3 13.4 10.1 81 1.7 CALM 0 0 0 0 1008.0 1008.1 0.0
24/10:30pm 13.4 13.5 10.2 81 1.7 CALM 0 0 0 0 1008.2 1008.3 0.0
24/10:00pm 13.8 13.8 9.8 77 2.1 CALM 0 0 0 0 1008.5 1008.6 0.0
24/09:30pm 13.4 13.6 10.6 83 1.5 CALM 0 0 0 0 1008.5 1008.6 0.0
24/09:00pm 13.7 13.9 10.5 81 1.7 CALM 0 0 0 0 1008.6 1008.7 0.0
24/08:30pm 13.9 12.3 10.3 79 1.9 E 9 11 5 6 1008.4 1008.5 0.0
24/08:00pm 14.9 13.5 8.7 66 3.2 NW 6 7 3 4 1008.5 1008.6 0.0
24/07:30pm 14.9 13.4 8.4 65 3.3 WNW 6 7 3 4 1008.0 1008.1 0.0
24/07:00pm 14.8 12.4 8.6 66 3.2 WNW 11 13 6 7 1008.2 1008.3 0.0
24/06:30pm 15.4 12.5 8.1 61 3.7 WNW 13 15 7 8 1008.1 1008.2 0.0
24/06:00pm 15.7 12.1 8.5 62 3.7 WNW 17 20 9 11 1008.2 1008.3 0.0
24/05:30pm 16.7 13.4 9.7 63 3.7 WNW 17 19 9 10 1008.5 1008.6 0.0
24/05:00pm 17.5 13.5 8.2 54 4.8 NW 19 28 10 15 1008.2 1008.3 0.0
24/04:30pm 18.5 15.9 9.5 55 4.8 NNW 13 15 7 8 1007.7 1007.8 0.0
24/04:00pm 18.8 16.2 9.2 53 5.1 NNW 13 19 7 10 1007.8 1007.9 0.0
24/03:30pm 19.1 15.7 9.1 52 5.3 N 17 24 9 13 1007.9 1008.0 0.0
24/03:00pm 19.1 16.6 9.8 55 5.0 N 13 22 7 12 1008.0 1008.1 0.0
24/02:30pm 19.3 16.3 9.4 52 5.3 NNE 15 20 8 11 1008.0 1008.1 0.0
24/02:00pm 19.5 15.7 9.9 54 5.2 N 20 28 11 15 1008.7 1008.8 0.0
24/01:30pm 18.9 16.4 9.8 55 4.9 WNW 13 20 7 11 1008.6 1008.7 0.0
24/01:00pm 18.1 14.4 9.5 57 4.6 NNW 19 24 10 13 1009.0 1009.1 0.0
24/12:30pm 19.6 16.4 9.8 53 5.3 NNE 17 28 9 15 1009.5 1009.5 0.0
24/12:00pm 18.7 16.5 9.5 55 4.9 ENE 11 19 6 10 1010.0 1010.0 0.0

Other Formats:

Comma delimited format used in spreadsheet applications
http://www.bom.gov.au/fwo/IDN60801/IDN60801.94910.axf

JavaScript Object Notation format (JSON) in row-major order
http://www.bom.gov.au/fwo/IDN60801/IDN60801.94910.json